Big Indian, New York
Current Conditions -  °F | °C
As of 3:35 AM on Sunday 21 Dec 2014 (Local Time) from KMSV Reporting Station
Overcast Overcast  
Wind Chill: 25°   Ceiling: 1000
Heat Index: 25°   Visibility: 4mi
Dew Point: 25°   Wind: 3mph
Humidity: 100%   Direction: 270°W
Pressure: 30.23"   Gusts: NA
Location:  42.1°N, 74.44°W
Report Text: KMSV 210835Z AUTO 27003KT 4SM OVC010 M04/M04 A3023 RMK AO1
Loading
Personal Weather Stations






























Interactive Weather Map New forecast layout! Learn more

10-Day Weather Forecast

Advertisements
Track Severe Weather on mobile